Time;durP1;ratioP1;P1;durP2;ratioP2;P2;SDS_P1;SDS_P2;PMS_P1;PMS_P2;Temp;Humidity;BMP_temperature;BMP_pressure;BME280_temperature;BME280_humidity;BME280_pressure;Samples;Min_cycle;Max_cycle;Signal;HPM_P1;HPM_P2
2022/12/30 00:01:14;;;;;;;12.65;1.27;;;;;;;8.19;100.00;97757.03;4994805;28;20546;-89
2022/12/30 00:03:39;;;;;;;19.05;1.40;;;;;;;8.22;100.00;97765.53;5010050;28;20026;-90
2022/12/30 00:06:14;;;;;;;14.68;2.05;;;;;;;8.23;100.00;97767.16;5013023;28;20428;-90
2022/12/30 00:08:48;;;;;;;9.93;1.63;;;;;;;8.23;100.00;97746.09;4995885;28;20045;-89
2022/12/30 00:11:19;;;;;;;10.18;1.60;;;;;;;8.22;100.00;97768.16;5019443;28;20057;-89
2022/12/30 00:33:54;;;;;;;5.18;0.82;;;;;;;8.24;100.00;97695.09;5002424;28;20037;-89
2022/12/30 00:36:22;;;;;;;9.60;0.68;;;;;;;8.23;100.00;97704.81;5007859;28;20052;-89
2022/12/30 00:38:48;;;;;;;6.47;1.00;;;;;;;8.28;100.00;97699.75;5019177;28;20475;-89
2022/12/30 00:43:59;;;;;;;3.47;0.60;;;;;;;8.36;100.00;97676.91;4993605;28;20040;-89
2022/12/30 00:46:25;;;;;;;8.52;1.27;;;;;;;8.37;100.00;97673.28;5010497;28;20034;-88
2022/12/30 00:57:04;;;;;;;3.28;0.60;;;;;;;8.41;100.00;97643.72;5009938;28;20417;-89
2022/12/30 00:59:30;;;;;;;8.30;1.00;;;;;;;8.48;100.00;97645.53;5008912;28;20029;-89
2022/12/30 01:01:56;;;;;;;5.10;0.63;;;;;;;8.44;100.00;97627.53;4993650;28;20033;-89
2022/12/30 01:04:22;;;;;;;3.58;0.65;;;;;;;8.48;100.00;97622.69;5006688;28;20030;-89
2022/12/30 01:06:48;;;;;;;8.10;1.30;;;;;;;8.49;100.00;97613.75;5007315;28;20494;-89
2022/12/30 01:09:13;;;;;;;4.93;0.50;;;;;;;8.50;100.00;97611.94;5010363;28;20104;-90
2022/12/30 01:11:39;;;;;;;4.30;0.45;;;;;;;8.54;100.00;97595.56;5009450;28;20038;-90
2022/12/30 01:14:05;;;;;;;4.60;0.80;;;;;;;8.55;100.00;97583.22;5009908;28;20346;-89
2022/12/30 01:16:31;;;;;;;4.75;0.57;;;;;;;8.55;100.00;97573.50;4994288;28;20087;-90
2022/12/30 01:18:57;;;;;;;8.00;1.23;;;;;;;8.61;100.00;97560.53;5025443;28;20088;-90
2022/12/30 01:21:22;;;;;;;5.60;0.85;;;;;;;8.64;100.00;97573.28;4993365;28;20042;-90
2022/12/30 01:23:48;;;;;;;6.05;1.00;;;;;;;8.69;100.00;97562.97;5018315;28;20100;-90
2022/12/30 01:26:14;;;;;;;3.97;1.05;;;;;;;8.70;100.00;97564.56;5004085;28;20032;-90
2022/12/30 01:28:40;;;;;;;7.15;0.77;;;;;;;8.69;100.00;97537.44;4992934;28;20045;-91
2022/12/30 01:31:08;;;;;;;5.45;0.85;;;;;;;8.72;100.00;97533.59;4995121;28;20565;-92
2022/12/30 01:33:34;;;;;;;5.90;0.55;;;;;;;8.77;100.00;97536.44;5007436;28;20038;-89
2022/12/30 01:36:03;;;;;;;5.53;0.52;;;;;;;8.80;100.00;97519.41;4990703;28;20128;-91
2022/12/30 01:38:31;;;;;;;4.40;0.70;;;;;;;8.84;100.00;97525.06;5009357;28;20081;-89
2022/12/30 01:40:58;;;;;;;3.70;0.68;;;;;;;8.82;100.00;97522.66;4991044;28;20545;-88
2022/12/30 01:43:43;;;;;;;4.93;0.60;;;;;;;8.88;100.00;97511.28;5011833;28;20026;-91
2022/12/30 01:46:15;;;;;;;3.00;0.50;;;;;;;8.86;100.00;97515.13;5010100;28;20060;-89
2022/12/30 01:48:41;;;;;;;3.33;0.65;;;;;;;8.86;100.00;97504.59;4991633;28;20533;-90
2022/12/30 01:51:13;;;;;;;4.05;0.60;;;;;;;8.94;100.00;97488.56;4990419;28;20120;-89
2022/12/30 01:53:45;;;;;;;3.80;0.70;;;;;;;8.89;100.00;97476.00;5020942;28;20060;-90
2022/12/30 01:56:26;;;;;;;4.05;0.32;;;;;;;8.92;100.00;97470.34;4996068;28;20179;-90
2022/12/30 01:58:59;;;;;;;5.22;0.50;;;;;;;8.96;100.00;97489.19;4981567;28;20036;-91
2022/12/30 02:01:25;;;;;;;5.03;0.75;;;;;;;8.95;100.00;97489.38;5005421;28;20038;-94
2022/12/30 02:04:03;;;;;;;2.65;0.55;;;;;;;9.00;100.00;97481.69;4992134;28;20030;-89
2022/12/30 02:06:47;;;;;;;6.70;0.30;;;;;;;9.00;100.00;97448.22;4980179;28;20054;-85
2022/12/30 02:09:13;;;;;;;3.65;0.40;;;;;;;8.97;100.00;97458.34;4991144;28;20037;-85
2022/12/30 02:11:38;;;;;;;1.42;0.40;;;;;;;9.01;100.00;97455.13;5011129;28;20518;-89
2022/12/30 02:14:04;;;;;;;1.35;0.20;;;;;;;8.99;100.00;97443.97;4995280;28;20784;-89
2022/12/30 02:16:50;;;;;;;2.42;0.38;;;;;;;9.08;100.00;97443.75;4996333;28;20049;-91
2022/12/30 02:20:01;;;;;;;1.92;0.20;;;;;;;9.09;100.00;97448.00;4976325;28;20093;-89
2022/12/30 02:22:37;;;;;;;0.95;0.10;;;;;;;9.07;100.00;97437.66;4990271;28;20045;-85
2022/12/30 02:25:21;;;;;;;2.63;0.20;;;;;;;9.12;100.00;97432.56;5006464;28;20034;-85
2022/12/30 02:28:08;;;;;;;1.17;0.10;;;;;;;9.14;100.00;97409.44;5017186;28;20475;-89
2022/12/30 02:31:06;;;;;;;2.25;0.30;;;;;;;9.12;100.00;97437.03;5028377;28;20034;-89
2022/12/30 02:33:42;;;;;;;2.83;0.10;;;;;;;9.13;100.00;97428.91;5022435;28;20137;-90
2022/12/30 02:36:25;;;;;;;0.93;0.20;;;;;;;9.13;100.00;97422.81;4983536;28;20042;-89
2022/12/30 02:39:07;;;;;;;3.50;0.40;;;;;;;9.16;100.00;97422.41;5012800;28;20041;-89
2022/12/30 02:44:47;;;;;;;2.47;0.40;;;;;;;9.17;100.00;97381.88;5009121;28;20030;-89
2022/12/30 02:47:21;;;;;;;4.60;0.60;;;;;;;9.16;100.00;97381.06;4974537;28;20137;-91
2022/12/30 02:52:41;;;;;;;3.30;0.35;;;;;;;9.17;100.00;97366.06;5000873;28;20072;-89
2022/12/30 02:55:08;;;;;;;3.85;0.45;;;;;;;9.18;100.00;97370.31;5012124;28;20129;-90
2022/12/30 02:57:34;;;;;;;4.72;0.93;;;;;;;9.20;100.00;97365.66;5000563;28;20093;-89
2022/12/30 03:06:30;;;;;;;7.80;0.75;;;;;;;9.21;100.00;97338.25;5004265;28;20030;-85
2022/12/30 03:09:24;;;;;;;5.45;0.82;;;;;;;9.22;100.00;97337.22;4992481;28;20041;-90
2022/12/30 03:12:04;;;;;;;7.35;0.75;;;;;;;9.19;100.00;97313.94;5006387;28;20064;-85
2022/12/30 03:14:38;;;;;;;4.07;0.63;;;;;;;9.25;100.00;97331.53;5010832;28;20038;-85
2022/12/30 03:17:11;;;;;;;4.18;0.70;;;;;;;9.28;100.00;97319.78;4974216;28;20029;-85
2022/12/30 03:19:44;;;;;;;5.57;0.95;;;;;;;9.32;100.00;97318.31;5010596;28;20172;-86
2022/12/30 03:27:03;;;;;;;4.97;0.80;;;;;;;9.29;100.00;97282.66;5007725;28;20026;-90
2022/12/30 03:27:48;;;;;;;4.40;0.75;;;;;;;9.33;100.00;97303.31;5011597;28;20125;-90
2022/12/30 03:30:17;;;;;;;4.68;0.75;;;;;;;9.36;100.00;97292.34;4994770;28;20037;-90
2022/12/30 03:32:43;;;;;;;3.30;0.43;;;;;;;9.34;100.00;97278.56;5007678;28;20045;-90
2022/12/30 03:35:09;;;;;;;3.72;0.88;;;;;;;9.34;100.00;97295.19;4993101;28;20037;-89
2022/12/30 03:37:41;;;;;;;6.55;0.63;;;;;;;9.38;100.00;97280.56;4994845;28;20025;-90
2022/12/30 03:40:16;;;;;;;3.58;0.40;;;;;;;9.40;100.00;97264.53;4992678;28;20116;-90
2022/12/30 03:42:44;;;;;;;5.47;0.52;;;;;;;9.33;100.00;97245.34;4979267;28;20026;-90
2022/12/30 03:45:10;;;;;;;1.75;0.43;;;;;;;9.33;100.00;97261.16;5015982;28;20033;-89
2022/12/30 03:47:36;;;;;;;1.30;0.13;;;;;;;9.33;100.00;97261.97;4977822;28;20064;-89
2022/12/30 03:50:03;;;;;;;3.85;0.35;;;;;;;9.33;100.00;97255.88;4995759;28;20034;-89
2022/12/30 03:52:29;;;;;;;2.92;0.45;;;;;;;9.33;100.00;97254.06;5004379;28;20065;-86
2022/12/30 03:54:55;;;;;;;7.97;0.30;;;;;;;9.32;100.00;97247.16;5018508;28;20475;-86
2022/12/30 03:57:21;;;;;;;1.92;0.15;;;;;;;9.32;100.00;97244.53;4983761;28;20030;-90
2022/12/30 03:59:47;;;;;;;1.98;0.65;;;;;;;9.32;100.00;97241.88;4993250;28;20045;-90
2022/12/30 04:02:13;;;;;;;2.80;0.35;;;;;;;9.36;100.00;97235.19;4992466;28;20045;-91
2022/12/30 04:04:38;;;;;;;1.23;0.20;;;;;;;9.38;100.00;97227.06;4992401;28;20129;-90
2022/12/30 04:07:04;;;;;;;1.20;0.17;;;;;;;9.36;100.00;97237.81;5008055;28;20056;-90
2022/12/30 04:09:30;;;;;;;4.63;0.47;;;;;;;9.37;100.00;97231.50;5011237;28;20026;-90
2022/12/30 04:11:56;;;;;;;2.40;0.52;;;;;;;9.36;100.00;97229.09;5001843;28;20088;-86
2022/12/30 04:14:22;;;;;;;2.75;0.43;;;;;;;9.36;100.00;97221.19;4992911;28;20038;-86
2022/12/30 04:16:47;;;;;;;5.88;0.35;;;;;;;9.35;100.00;97209.81;4991549;28;20056;-90
2022/12/30 04:19:13;;;;;;;0.65;0.13;;;;;;;9.33;100.00;97209.25;4989220;28;20121;-89
2022/12/30 04:21:39;;;;;;;1.50;0.10;;;;;;;9.35;100.00;97211.69;5012178;28;20037;-89
2022/12/30 04:24:06;;;;;;;1.65;0.28;;;;;;;9.33;100.00;97203.97;4993977;28;20101;-89
2022/12/30 04:26:32;;;;;;;1.75;0.40;;;;;;;9.32;100.00;97196.28;4992999;28;20057;-89
2022/12/30 04:28:57;;;;;;;0.93;0.28;;;;;;;9.30;100.00;97193.88;5010860;28;20046;-89
2022/12/30 04:31:23;;;;;;;2.75;0.70;;;;;;;9.28;100.00;97191.47;4977177;28;20128;-88
2022/12/30 04:33:53;;;;;;;6.72;0.85;;;;;;;9.28;100.00;97188.00;4993068;28;20030;-88
2022/12/30 04:36:21;;;;;;;4.60;0.70;;;;;;;9.25;100.00;97181.31;4993246;28;20618;-88
2022/12/30 04:38:47;;;;;;;3.25;0.88;;;;;;;9.25;100.00;97185.81;5008635;28;20061;-89
2022/12/30 04:41:13;;;;;;;6.22;0.70;;;;;;;9.28;100.00;97161.66;5015986;28;20075;-89
2022/12/30 04:43:39;;;;;;;7.00;0.70;;;;;;;9.26;100.00;97169.78;5010162;28;20061;-90
2022/12/30 04:46:05;;;;;;;4.53;0.90;;;;;;;9.26;100.00;97168.97;4992955;28;20479;-88
2022/12/30 04:48:31;;;;;;;6.68;0.68;;;;;;;9.27;100.00;97154.78;4994420;28;20042;-90
2022/12/30 04:50:57;;;;;;;6.18;0.70;;;;;;;9.27;100.00;97149.50;5010363;28;20037;-89
2022/12/30 04:53:23;;;;;;;4.97;0.50;;;;;;;9.25;100.00;97144.44;4999281;28;20045;-89
2022/12/30 04:55:53;;;;;;;5.90;0.85;;;;;;;9.28;100.00;97127.38;5023104;28;20563;-91
2022/12/30 04:58:19;;;;;;;8.27;0.95;;;;;;;9.22;100.00;97129.06;4992720;28;20376;-89
2022/12/30 05:00:47;;;;;;;5.90;0.75;;;;;;;9.26;100.00;97130.25;4978569;28;20038;-90
2022/12/30 05:03:13;;;;;;;3.88;0.45;;;;;;;9.25;100.00;97125.97;5009684;28;20041;-89
2022/12/30 05:05:39;;;;;;;2.53;0.60;;;;;;;9.24;100.00;97110.38;4994227;28;20030;-90
2022/12/30 05:08:05;;;;;;;3.55;0.55;;;;;;;9.21;100.00;97122.19;4991989;28;20503;-90
2022/12/30 05:10:33;;;;;;;4.47;0.43;;;;;;;9.25;100.00;97115.44;5027077;28;20041;-90
2022/12/30 05:12:59;;;;;;;2.97;0.40;;;;;;;9.22;100.00;97094.00;4992691;28;20057;-86
2022/12/30 05:15:24;;;;;;;8.05;0.82;;;;;;;9.21;100.00;97098.47;5007311;28;20475;-85
2022/12/30 05:17:50;;;;;;;2.00;0.45;;;;;;;9.23;100.00;97071.88;5013123;28;20029;-89
2022/12/30 05:20:16;;;;;;;3.20;0.30;;;;;;;9.22;100.00;97096.66;5007170;28;20049;-89
2022/12/30 05:22:42;;;;;;;2.83;0.32;;;;;;;9.20;100.00;97088.94;5003175;28;20026;-90
2022/12/30 05:27:52;;;;;;;2.25;0.40;;;;;;;9.26;100.00;97089.91;5008881;28;20038;-89
2022/12/30 05:30:18;;;;;;;3.42;0.38;;;;;;;9.27;100.00;97078.34;4975366;28;20475;-90
2022/12/30 05:32:44;;;;;;;1.88;0.30;;;;;;;9.22;100.00;97078.19;4993653;28;20062;-89
2022/12/30 05:35:10;;;;;;;2.65;0.30;;;;;;;9.25;100.00;97069.84;5009572;28;20030;-90
2022/12/30 05:37:36;;;;;;;3.45;0.43;;;;;;;9.24;100.00;97063.75;4993633;28;20120;-86
2022/12/30 05:40:04;;;;;;;1.65;0.47;;;;;;;9.26;100.00;97059.09;4996131;28;20076;-86
2022/12/30 05:42:30;;;;;;;2.60;0.45;;;;;;;9.25;100.00;97046.13;4979931;28;20495;-86
2022/12/30 05:44:55;;;;;;;3.75;0.35;;;;;;;9.27;100.00;97058.06;4998516;28;20052;-86
2022/12/30 05:47:21;;;;;;;5.65;0.40;;;;;;;9.23;100.00;97054.25;5006145;28;20052;-89
2022/12/30 05:49:48;;;;;;;2.20;0.28;;;;;;;9.24;100.00;97045.31;4999293;28;20379;-89
2022/12/30 05:52:14;;;;;;;5.70;0.22;;;;;;;9.27;100.00;97041.47;4993397;28;20383;-86
2022/12/30 05:54:41;;;;;;;1.30;0.30;;;;;;;9.25;100.00;97025.84;5004858;28;20030;-85
2022/12/30 05:57:07;;;;;;;2.85;0.20;;;;;;;9.25;100.00;97023.19;4995678;28;20120;-86
2022/12/30 05:59:33;;;;;;;1.40;0.25;;;;;;;9.24;100.00;97023.41;5012808;28;20052;-86
2022/12/30 06:01:59;;;;;;;2.88;0.43;;;;;;;9.24;100.00;96995.25;4967769;28;20026;-86
2022/12/30 06:04:25;;;;;;;0.90;0.20;;;;;;;9.27;100.00;97020.38;5010773;28;20063;-86
2022/12/30 06:06:51;;;;;;;1.88;0.30;;;;;;;9.29;100.00;97007.75;4992213;28;20117;-89
2022/12/30 06:09:17;;;;;;;1.58;0.20;;;;;;;9.29;100.00;96999.84;4989283;28;20046;-90
2022/12/30 06:11:43;;;;;;;1.55;0.28;;;;;;;9.26;100.00;96987.94;4997338;28;20502;-89
2022/12/30 06:14:10;;;;;;;1.30;0.10;;;;;;;9.28;100.00;96992.97;4997113;28;20398;-88
2022/12/30 06:16:36;;;;;;;2.58;0.80;;;;;;;9.27;100.00;96983.47;5010372;28;20030;-87
2022/12/30 06:19:02;;;;;;;1.67;0.32;;;;;;;9.35;100.00;96996.34;4991283;28;20505;-89
2022/12/30 06:21:28;;;;;;;2.20;0.20;;;;;;;9.34;100.00;96983.38;5010806;28;20041;-90
2022/12/30 06:23:54;;;;;;;2.35;0.20;;;;;;;9.37;100.00;96990.84;5015144;28;20033;-89
2022/12/30 06:26:19;;;;;;;2.15;0.15;;;;;;;9.34;100.00;96981.56;4987343;28;20030;-88
2022/12/30 06:28:45;;;;;;;1.48;0.20;;;;;;;9.32;100.00;96974.91;4989406;28;20546;-88
2022/12/30 06:31:11;;;;;;;1.00;0.35;;;;;;;9.34;100.00;96968.38;4996319;28;20034;-89
2022/12/30 06:33:37;;;;;;;3.08;0.20;;;;;;;9.35;100.00;96969.19;4978898;28;20041;-88
2022/12/30 06:36:03;;;;;;;1.25;0.10;;;;;;;9.38;100.00;96977.44;4978965;28;20038;-88
2022/12/30 06:38:29;;;;;;;0.65;0.17;;;;;;;9.38;100.00;96982.72;4997408;28;20124;-89
2022/12/30 06:40:55;;;;;;;0.45;0.05;;;;;;;9.39;100.00;96973.78;4993381;28;20047;-88
2022/12/30 06:43:21;;;;;;;0.52;0.20;;;;;;;9.39;100.00;96957.97;5012845;28;20493;-89
2022/12/30 06:45:46;;;;;;;1.80;0.35;;;;;;;9.39;100.00;96965.06;5013381;28;20029;-89
2022/12/30 06:48:12;;;;;;;2.17;0.20;;;;;;;9.38;100.00;96966.91;4992494;28;20038;-88
2022/12/30 06:50:38;;;;;;;0.20;0.10;;;;;;;9.40;100.00;96961.41;4996309;28;20037;-89
2022/12/30 06:53:05;;;;;;;3.20;0.20;;;;;;;9.39;100.00;96972.97;4995862;28;20406;-87
2022/12/30 06:55:31;;;;;;;0.52;0.08;;;;;;;9.36;100.00;96968.97;4998139;28;20068;-88
2022/12/30 06:57:57;;;;;;;0.20;0.00;;;;;;;9.35;100.00;96958.66;4990677;28;20441;-88
2022/12/30 07:00:23;;;;;;;1.30;0.10;;;;;;;9.35;100.00;96963.91;5012441;28;20045;-89
2022/12/30 07:02:49;;;;;;;0.68;0.10;;;;;;;9.29;100.00;96976.94;4992978;28;20038;-88
2022/12/30 07:05:14;;;;;;;0.90;0.10;;;;;;;9.27;100.00;96984.25;4995493;28;20406;-89
2022/12/30 07:07:40;;;;;;;2.25;0.20;;;;;;;9.28;100.00;96999.06;5011260;28;20053;-89
2022/12/30 07:10:06;;;;;;;34.53;0.65;;;;;;;9.25;100.00;96988.94;4995299;28;20132;-89
2022/12/30 07:12:32;;;;;;;0.43;0.00;;;;;;;9.25;100.00;96983.66;4993715;28;20472;-89
2022/12/30 07:14:58;;;;;;;1.17;0.10;;;;;;;9.21;100.00;96979.88;5008312;28;20045;-89
2022/12/30 07:17:24;;;;;;;0.30;0.00;;;;;;;9.23;100.00;96991.00;5010811;28;20479;-89
2022/12/30 07:19:49;;;;;;;0.17;0.10;;;;;;;9.21;100.00;96989.59;5010453;28;20038;-89
2022/12/30 07:22:16;;;;;;;0.57;0.17;;;;;;;9.14;100.00;96992.34;4993503;28;20045;-89
2022/12/30 07:24:42;;;;;;;0.40;0.10;;;;;;;9.12;100.00;96987.28;4998625;28;20030;-88
2022/12/30 07:27:11;;;;;;;0.10;0.00;;;;;;;9.08;100.00;96977.41;4986970;28;20042;-89
2022/12/30 07:29:38;;;;;;;0.75;0.10;;;;;;;8.99;100.00;96969.81;4979794;28;20037;-89
2022/12/30 07:32:05;;;;;;;0.10;0.10;;;;;;;8.95;100.00;96976.53;4989528;28;20037;-89
2022/12/30 07:34:31;;;;;;;0.08;0.00;;;;;;;8.87;100.00;96968.94;4980826;28;20057;-90
2022/12/30 07:36:56;;;;;;;0.30;0.17;;;;;;;8.83;100.00;96970.38;4996164;28;20036;-90
2022/12/30 07:39:22;;;;;;;0.73;0.10;;;;;;;8.79;100.00;96973.44;4994791;28;20056;-90
2022/12/30 07:41:48;;;;;;;0.05;0.00;;;;;;;8.80;100.00;96975.09;4995192;28;20042;-90
2022/12/30 07:44:14;;;;;;;0.03;0.00;;;;;;;8.81;100.00;96971.41;4995891;28;20053;-90
2022/12/30 07:46:40;;;;;;;0.10;0.00;;;;;;;8.84;100.00;96972.00;4984079;28;20482;-90
2022/12/30 07:49:06;;;;;;;0.10;0.00;;;;;;;8.83;100.00;96965.94;5003965;28;20092;-90
2022/12/30 07:51:31;;;;;;;0.10;0.10;;;;;;;8.80;100.00;96969.81;5006471;28;20434;-90
2022/12/30 07:53:58;;;;;;;1.17;0.10;;;;;;;8.81;100.00;96978.50;4995398;28;20045;-89
2022/12/30 07:56:24;;;;;;;0.17;0.10;;;;;;;8.79;100.00;96991.09;4993128;28;20045;-90
2022/12/30 07:58:54;;;;;;;0.10;0.00;;;;;;;8.74;100.00;96986.50;5011866;28;20382;-89
2022/12/30 08:01:20;;;;;;;0.38;0.00;;;;;;;8.68;100.00;96987.34;5034671;28;20521;-89
2022/12/30 08:03:45;;;;;;;0.00;0.00;;;;;;;8.59;100.00;96988.66;4987872;28;20034;-89
2022/12/30 08:06:16;;;;;;;2.38;0.00;;;;;;;8.58;100.00;96995.75;5009143;28;20137;-90
2022/12/30 08:08:44;;;;;;;0.10;0.10;;;;;;;8.53;100.00;96991.09;4988645;28;20073;-89
2022/12/30 08:11:11;;;;;;;0.40;0.10;;;;;;;8.53;100.00;97006.91;4984162;28;20146;-89
2022/12/30 08:13:39;;;;;;;1.02;0.03;;;;;;;8.50;100.00;97004.72;5001537;28;20038;-90
2022/12/30 08:16:14;;;;;;;0.30;0.00;;;;;;;8.50;100.00;97009.16;4991473;28;20041;-90
2022/12/30 08:18:39;;;;;;;0.10;0.00;;;;;;;8.44;100.00;97011.63;4970835;28;20044;-90
2022/12/30 08:21:08;;;;;;;0.10;0.00;;;;;;;8.44;100.00;97011.63;5009291;28;20029;-89
2022/12/30 08:23:34;;;;;;;1.35;0.00;;;;;;;8.42;100.00;97007.59;4987628;28;20068;-90
2022/12/30 08:26:11;;;;;;;0.20;0.00;;;;;;;8.44;100.00;97016.88;4977449;28;20037;-90
2022/12/30 08:28:37;;;;;;;3.42;0.00;;;;;;;8.44;100.00;97016.09;4995364;28;20103;-90
2022/12/30 08:31:07;;;;;;;0.00;0.00;;;;;;;8.42;100.00;97010.25;4994165;28;20112;-90
2022/12/30 08:33:33;;;;;;;0.00;0.00;;;;;;;8.37;100.00;97003.00;5006612;28;20088;-91
2022/12/30 08:36:01;;;;;;;0.30;0.00;;;;;;;8.37;100.00;97012.69;4987519;28;20360;-91
2022/12/30 08:38:27;;;;;;;0.22;0.00;;;;;;;8.35;100.00;97017.38;5002561;28;20069;-91
2022/12/30 08:40:53;;;;;;;0.30;0.10;;;;;;;8.32;100.00;97015.97;4994790;28;20088;-92
2022/12/30 08:43:20;;;;;;;1.65;0.20;;;;;;;8.32;100.00;97021.25;4995233;28;20095;-92
2022/12/30 08:45:55;;;;;;;1.30;0.17;;;;;;;8.37;100.00;97016.16;5009931;28;20038;-92
2022/12/30 08:48:21;;;;;;;1.50;0.13;;;;;;;8.31;100.00;97030.94;5007729;28;20069;-90
2022/12/30 08:50:47;;;;;;;2.05;0.25;;;;;;;8.34;100.00;97040.25;5015933;28;20402;-92
2022/12/30 08:53:13;;;;;;;4.43;0.40;;;;;;;8.32;100.00;97032.59;5009699;28;20072;-90
2022/12/30 08:55:38;;;;;;;1.92;0.22;;;;;;;8.30;100.00;97039.88;4992605;28;20425;-90
2022/12/30 08:58:04;;;;;;;1.30;0.22;;;;;;;8.25;100.00;97039.69;5004602;28;20058;-91
2022/12/30 09:00:30;;;;;;;0.90;0.20;;;;;;;8.21;100.00;97032.44;4991873;28;20034;-92
2022/12/30 09:02:56;;;;;;;1.38;0.30;;;;;;;8.17;100.00;97045.25;4988347;28;20128;-91
2022/12/30 09:05:21;;;;;;;1.52;0.20;;;;;;;8.15;100.00;97050.72;5007580;28;20037;-91
2022/12/30 09:07:47;;;;;;;3.58;0.40;;;;;;;8.10;100.00;97055.81;4978587;28;20289;-89
2022/12/30 09:10:13;;;;;;;2.78;0.40;;;;;;;8.10;100.00;97057.63;4989067;28;20129;-91
2022/12/30 09:12:39;;;;;;;2.15;0.40;;;;;;;8.02;100.00;97062.13;4978493;28;20406;-91
2022/12/30 09:15:06;;;;;;;2.13;0.43;;;;;;;8.01;100.00;97059.72;4994365;28;20034;-91
2022/12/30 09:17:32;;;;;;;5.35;0.60;;;;;;;7.98;100.00;97058.28;5007343;28;20036;-90
2022/12/30 09:19:58;;;;;;;5.72;0.73;;;;;;;7.97;100.00;97061.94;4992375;28;20049;-89
2022/12/30 09:22:24;;;;;;;5.07;0.63;;;;;;;7.94;100.00;97063.19;4989210;28;20034;-91
2022/12/30 09:24:50;;;;;;;6.72;0.77;;;;;;;7.88;100.00;97061.41;4989545;28;20382;-90
2022/12/30 09:27:16;;;;;;;8.35;1.35;;;;;;;7.85;100.00;97066.28;4999040;28;20042;-91
2022/12/30 09:29:42;;;;;;;9.10;2.28;;;;;;;7.83;100.00;97071.75;4992224;28;20558;-90
2022/12/30 09:32:07;;;;;;;14.27;2.67;;;;;;;7.79;100.00;97073.97;4972103;28;20045;-91
2022/12/30 09:34:33;;;;;;;9.05;1.15;;;;;;;7.75;100.00;97070.16;5002407;28;20096;-90
2022/12/30 09:36:59;;;;;;;10.48;1.23;;;;;;;7.71;100.00;97076.84;4991951;28;20043;-91
2022/12/30 09:39:31;;;;;;;9.30;1.15;;;;;;;7.67;100.00;97080.91;4973286;28;20124;-90
2022/12/30 09:45:12;;;;;;;9.60;1.73;;;;;;;7.65;100.00;97081.13;5006529;28;20053;-91
2022/12/30 09:47:44;;;;;;;13.98;1.55;;;;;;;7.64;100.00;97076.06;5010528;28;20042;-89
2022/12/30 09:50:45;;;;;;;9.13;1.50;;;;;;;7.64;100.00;97076.06;5003376;28;20125;-89
2022/12/30 09:53:26;;;;;;;6.05;1.05;;;;;;;7.64;100.00;97070.81;5007703;28;20319;-89
2022/12/30 09:55:57;;;;;;;7.95;1.10;;;;;;;7.63;100.00;97077.88;4994552;28;20041;-90
2022/12/30 09:58:30;;;;;;;9.82;1.35;;;;;;;7.64;100.00;97082.16;5007874;28;20121;-90
2022/12/30 10:01:19;;;;;;;4.97;1.05;;;;;;;7.63;100.00;97090.25;5005907;28;20382;-90
2022/12/30 10:03:45;;;;;;;11.50;1.02;;;;;;;7.62;100.00;97104.38;4999554;28;20479;-90
2022/12/30 10:06:33;;;;;;;7.72;1.50;;;;;;;7.64;100.00;97104.97;4992515;28;20088;-89
2022/12/30 10:09:05;;;;;;;10.07;1.92;;;;;;;7.63;100.00;97106.00;4989960;28;20057;-90
2022/12/30 10:12:17;;;;;;;10.77;1.52;;;;;;;7.62;100.00;97117.53;5007699;28;20065;-90
2022/12/30 10:15:03;;;;;;;10.98;1.08;;;;;;;7.59;100.00;97121.38;4976865;28;20049;-89
2022/12/30 10:17:41;;;;;;;18.67;1.20;;;;;;;7.54;100.00;97129.06;4988885;28;20046;-90
2022/12/30 10:20:33;;;;;;;9.40;1.15;;;;;;;7.58;100.00;97127.63;4991629;28;20037;-89
2022/12/30 10:23:01;;;;;;;11.70;1.30;;;;;;;7.57;100.00;97134.72;4997364;28;20096;-89
2022/12/30 10:25:47;;;;;;;7.32;1.35;;;;;;;7.59;100.00;97142.41;5011654;28;20041;-90
2022/12/30 10:28:20;;;;;;;8.57;1.65;;;;;;;7.60;100.00;97143.22;5000345;28;20589;-89
2022/12/30 10:30:48;;;;;;;8.55;1.23;;;;;;;7.62;100.00;97128.03;4978145;28;20057;-89
2022/12/30 10:33:19;;;;;;;9.65;1.80;;;;;;;7.66;100.00;97145.03;4995359;28;20041;-90
2022/12/30 10:35:49;;;;;;;5.25;0.95;;;;;;;7.67;100.00;97142.19;4999208;28;20041;-89
2022/12/30 10:38:18;;;;;;;12.73;1.27;;;;;;;7.71;100.00;97139.13;5024808;28;20033;-90
2022/12/30 10:41:10;;;;;;;6.68;1.20;;;;;;;7.72;100.00;97138.13;5009446;28;20965;-90
2022/12/30 10:44:02;;;;;;;7.68;1.10;;;;;;;7.74;100.00;97152.66;4956886;28;20133;-85
2022/12/30 10:46:47;;;;;;;4.70;1.52;;;;;;;7.73;100.00;97158.13;4988523;28;20402;-85
2022/12/30 10:49:22;;;;;;;8.32;0.82;;;;;;;7.75;100.00;97172.69;4994296;28;20479;-90
2022/12/30 10:51:49;;;;;;;7.70;1.20;;;;;;;7.72;100.00;97178.38;4976935;28;20042;-90
2022/12/30 10:54:15;;;;;;;8.80;0.88;;;;;;;7.75;100.00;97185.03;4991738;28;20080;-91
2022/12/30 10:56:42;;;;;;;11.75;1.67;;;;;;;7.77;100.00;97191.69;4988642;28;20034;-89
2022/12/30 10:59:16;;;;;;;10.25;1.17;;;;;;;7.81;100.00;97195.53;5020160;28;20045;-91
2022/12/30 11:01:45;;;;;;;19.88;1.55;;;;;;;7.80;100.00;97180.75;5012040;28;20045;-90
2022/12/30 11:04:37;;;;;;;8.23;1.42;;;;;;;7.82;100.00;97191.06;4975404;28;20033;-89
2022/12/30 11:07:06;;;;;;;6.78;1.42;;;;;;;7.81;100.00;97186.81;4996329;28;20434;-90
2022/12/30 11:09:32;;;;;;;8.70;1.77;;;;;;;7.84;100.00;97193.47;4980280;28;20049;-93
2022/12/30 11:14:55;;;;;;;12.13;1.35;;;;;;;7.93;100.00;97200.94;5022156;28;20076;-92
2022/12/30 11:17:20;;;;;;;12.07;1.38;;;;;;;7.92;100.00;97204.59;4989608;28;20033;-92
2022/12/30 11:19:52;;;;;;;10.07;2.80;;;;;;;7.98;100.00;97202.94;5023787;28;20026;-93
2022/12/30 11:22:19;;;;;;;10.93;1.42;;;;;;;7.96;100.00;97207.63;5001573;28;20089;-92
2022/12/30 11:24:55;;;;;;;10.77;2.10;;;;;;;7.96;100.00;97202.34;5007400;28;20081;-91
2022/12/30 11:27:49;;;;;;;19.55;2.35;;;;;;;7.99;100.00;97209.84;5007952;28;20058;-90
2022/12/30 11:30:42;;;;;;;12.27;3.28;;;;;;;8.00;100.00;97210.63;4999667;28;20046;-92
2022/12/30 11:33:19;;;;;;;10.68;1.85;;;;;;;7.99;100.00;97224.78;5010392;28;20046;-93
2022/12/30 11:35:48;;;;;;;14.23;2.28;;;;;;;7.96;100.00;97215.50;5011344;28;20041;-93
2022/12/30 11:38:35;;;;;;;14.88;2.17;;;;;;;7.96;100.00;97223.41;4976890;28;20049;-91
2022/12/30 11:41:19;;;;;;;16.42;1.98;;;;;;;7.92;100.00;97225.63;4991764;28;20044;-92
2022/12/30 11:43:50;;;;;;;20.15;2.45;;;;;;;7.87;100.00;97222.81;5001306;28;20034;-93
2022/12/30 11:46:25;;;;;;;9.50;1.67;;;;;;;7.89;100.00;97230.47;5010799;28;20026;-93
2022/12/30 11:48:54;;;;;;;16.43;2.67;;;;;;;7.86;100.00;97242.22;4995640;28;20034;-93
2022/12/30 11:51:26;;;;;;;15.10;1.80;;;;;;;7.86;100.00;97241.41;4991905;28;20026;-90
2022/12/30 11:54:03;;;;;;;14.32;1.50;;;;;;;7.87;100.00;97238.59;5019177;28;20038;-91
2022/12/30 11:56:29;;;;;;;11.48;1.40;;;;;;;7.81;100.00;97236.78;5020719;28;20033;-91
2022/12/30 11:59:07;;;;;;;8.60;1.67;;;;;;;7.82;100.00;97241.84;5007961;28;20844;-91
2022/12/30 12:01:45;;;;;;;13.15;1.83;;;;;;;7.87;100.00;97253.56;4997979;28;20034;-91
2022/12/30 12:04:38;;;;;;;8.95;1.17;;;;;;;7.91;100.00;97245.06;4992876;28;20088;-91
2022/12/30 12:07:25;;;;;;;8.88;1.20;;;;;;;7.87;100.00;97249.09;4992915;28;20386;-90
2022/12/30 12:10:15;;;;;;;5.22;0.75;;;;;;;7.89;100.00;97246.25;5002363;28;20487;-91
2022/12/30 12:12:51;;;;;;;9.65;1.67;;;;;;;7.91;100.00;97249.50;5002492;28;20103;-91
2022/12/30 12:15:38;;;;;;;11.00;1.70;;;;;;;7.84;100.00;97246.88;5009863;28;20482;-92
2022/12/30 12:18:19;;;;;;;10.68;1.45;;;;;;;7.87;100.00;97254.34;5018993;28;20121;-92
2022/12/30 12:21:04;;;;;;;8.35;2.22;;;;;;;7.84;100.00;97249.50;4992902;28;20134;-91
2022/12/30 12:24:07;;;;;;;8.77;1.48;;;;;;;7.89;100.00;97256.78;5005321;28;20042;-92
2022/12/30 12:26:48;;;;;;;8.75;2.15;;;;;;;7.89;100.00;97254.16;4992139;28;20160;-91
2022/12/30 12:29:15;;;;;;;7.88;1.48;;;;;;;7.89;100.00;97260.22;5011183;28;20037;-91
2022/12/30 12:32:28;;;;;;;8.52;1.33;;;;;;;7.93;100.00;97248.28;4996605;28;20124;-92
2022/12/30 12:35:14;;;;;;;11.00;1.08;;;;;;;7.96;100.00;97262.03;5004891;28;20054;-90
2022/12/30 12:37:49;;;;;;;10.50;1.10;;;;;;;7.93;100.00;97285.09;5010566;28;20048;-92
2022/12/30 12:40:33;;;;;;;8.68;1.48;;;;;;;7.94;100.00;97285.91;4976947;28;20029;-92
2022/12/30 12:43:15;;;;;;;9.20;1.55;;;;;;;7.88;100.00;97284.91;5013103;28;20101;-91